aviador You're here:

EYVI Decoded Metar

VILNIUS INTL in LITHUANIA
Report Time2017-11-19 19:20:00
UTC Time2017-11-19 19:43:08
Flight Rules ifr IFR
Wind190° at 10 kt
W.Decomp.*RWY 20: 9.6 kt HW 2.8 kt LCW
W.Rank190° ranks 4
Current wind is above 190° avg. (7.3)
Visibility8000 m
Phenomena:N/A
Clouds:Overcast 005 Hf
Expected CloudBase > 400 ft AGL from Temp-Dew spread
Ceiling500 ft
Temp02°C (ISA -12)
Dew Point01°C (93% RH)
AAT-3.4°C
QNH1001 hPa
Density Alt-276 ft
Elevation646 ft
Report Wrong Elevation
Raw Report
EYVI 191920Z 19010KT 8000 OVC005 02/01 Q1001 R19/2/0195 NOSIG=

Extra information for EYVI:More info

Metar Taf Metar & Taf Last 4 Metars F.Rules Stats Wind Profile Meteogram Temp Stats Airport Information Weather charts Add Link Nearby VenuesMetar ALERT Operation Metar Decoded Social comments